sensor_id;sensor_type;location;lat;lon;timestamp;temperature;humidity
76291;DHT22;65100;46.884;17.410;2024-03-29T00:00:35;8.71;88.82
76291;DHT22;65100;46.884;17.410;2024-03-29T00:03:01;9.04;89.65
76291;DHT22;65100;46.884;17.410;2024-03-29T00:05:26;9.14;87.84
76291;DHT22;65100;46.884;17.410;2024-03-29T00:07:52;9.25;86.92
76291;DHT22;65100;46.884;17.410;2024-03-29T00:10:17;9.12;86.39
76291;DHT22;65100;46.884;17.410;2024-03-29T00:12:42;9.00;87.50
76291;DHT22;65100;46.884;17.410;2024-03-29T00:15:08;8.88;88.10
76291;DHT22;65100;46.884;17.410;2024-03-29T00:17:33;8.74;87.72
76291;DHT22;65100;46.884;17.410;2024-03-29T00:19:59;8.63;88.09
76291;DHT22;65100;46.884;17.410;2024-03-29T00:22:24;8.43;89.68
76291;DHT22;65100;46.884;17.410;2024-03-29T00:24:50;8.44;90.60
76291;DHT22;65100;46.884;17.410;2024-03-29T00:27:15;8.75;88.19
76291;DHT22;65100;46.884;17.410;2024-03-29T00:29:41;8.85;90.13
76291;DHT22;65100;46.884;17.410;2024-03-29T00:32:08;8.98;90.21
76291;DHT22;65100;46.884;17.410;2024-03-29T00:34:33;9.00;89.13
76291;DHT22;65100;46.884;17.410;2024-03-29T00:36:59;8.75;89.70
76291;DHT22;65100;46.884;17.410;2024-03-29T00:39:24;8.89;91.20
76291;DHT22;65100;46.884;17.410;2024-03-29T00:41:49;9.12;90.72
76291;DHT22;65100;46.884;17.410;2024-03-29T00:44:15;9.31;89.51
76291;DHT22;65100;46.884;17.410;2024-03-29T00:46:40;9.34;88.29
76291;DHT22;65100;46.884;17.410;2024-03-29T00:49:06;9.05;90.11
76291;DHT22;65100;46.884;17.410;2024-03-29T00:51:31;8.95;90.89
76291;DHT22;65100;46.884;17.410;2024-03-29T00:53:56;9.40;88.86
76291;DHT22;65100;46.884;17.410;2024-03-29T00:56:22;9.36;88.64
76291;DHT22;65100;46.884;17.410;2024-03-29T00:58:47;9.12;88.57
76291;DHT22;65100;46.884;17.410;2024-03-29T01:01:13;9.11;87.79
76291;DHT22;65100;46.884;17.410;2024-03-29T01:03:38;9.11;88.46
76291;DHT22;65100;46.884;17.410;2024-03-29T01:06:04;8.97;88.69
76291;DHT22;65100;46.884;17.410;2024-03-29T01:08:29;8.95;88.53
76291;DHT22;65100;46.884;17.410;2024-03-29T01:10:55;9.02;88.78
76291;DHT22;65100;46.884;17.410;2024-03-29T01:13:20;8.67;89.55
76291;DHT22;65100;46.884;17.410;2024-03-29T01:15:46;8.70;88.94
76291;DHT22;65100;46.884;17.410;2024-03-29T01:18:11;8.38;89.50
76291;DHT22;65100;46.884;17.410;2024-03-29T01:20:37;8.51;90.37
76291;DHT22;65100;46.884;17.410;2024-03-29T01:23:02;8.77;89.23
76291;DHT22;65100;46.884;17.410;2024-03-29T01:25:28;8.68;89.46
76291;DHT22;65100;46.884;17.410;2024-03-29T01:27:54;8.81;89.17
76291;DHT22;65100;46.884;17.410;2024-03-29T01:30:20;8.46;90.43
76291;DHT22;65100;46.884;17.410;2024-03-29T01:32:47;8.56;91.14
76291;DHT22;65100;46.884;17.410;2024-03-29T01:35:12;8.75;90.35
76291;DHT22;65100;46.884;17.410;2024-03-29T01:37:38;8.89;88.35
76291;DHT22;65100;46.884;17.410;2024-03-29T01:40:04;8.80;87.27
76291;DHT22;65100;46.884;17.410;2024-03-29T01:42:30;8.67;86.77
76291;DHT22;65100;46.884;17.410;2024-03-29T01:44:55;8.65;86.47
76291;DHT22;65100;46.884;17.410;2024-03-29T01:47:22;8.43;84.94
76291;DHT22;65100;46.884;17.410;2024-03-29T01:49:47;8.10;86.05
76291;DHT22;65100;46.884;17.410;2024-03-29T01:52:14;8.10;86.84
76291;DHT22;65100;46.884;17.410;2024-03-29T01:54:41;7.92;86.70
76291;DHT22;65100;46.884;17.410;2024-03-29T01:57:07;7.85;86.56
76291;DHT22;65100;46.884;17.410;2024-03-29T01:59:33;7.79;86.11
76291;DHT22;65100;46.884;17.410;2024-03-29T02:01:59;7.61;86.68
76291;DHT22;65100;46.884;17.410;2024-03-29T02:04:26;7.44;87.08
76291;DHT22;65100;46.884;17.410;2024-03-29T02:06:51;7.54;88.47
76291;DHT22;65100;46.884;17.410;2024-03-29T02:09:17;7.49;85.40
76291;DHT22;65100;46.884;17.410;2024-03-29T02:11:43;7.44;86.34
76291;DHT22;65100;46.884;17.410;2024-03-29T02:14:08;7.35;85.17
76291;DHT22;65100;46.884;17.410;2024-03-29T02:16:34;7.21;85.93
76291;DHT22;65100;46.884;17.410;2024-03-29T02:18:59;7.05;85.77
76291;DHT22;65100;46.884;17.410;2024-03-29T02:21:25;7.03;87.78
76291;DHT22;65100;46.884;17.410;2024-03-29T02:24:03;7.07;87.94
76291;DHT22;65100;46.884;17.410;2024-03-29T02:26:28;7.08;87.09
76291;DHT22;65100;46.884;17.410;2024-03-29T02:28:57;6.97;86.65
76291;DHT22;65100;46.884;17.410;2024-03-29T02:31:22;6.85;87.02
76291;DHT22;65100;46.884;17.410;2024-03-29T02:33:48;6.97;87.46
76291;DHT22;65100;46.884;17.410;2024-03-29T02:36:13;6.84;86.71
76291;DHT22;65100;46.884;17.410;2024-03-29T02:38:39;6.64;87.96
76291;DHT22;65100;46.884;17.410;2024-03-29T02:41:05;6.63;86.69
76291;DHT22;65100;46.884;17.410;2024-03-29T02:43:31;6.54;87.07
76291;DHT22;65100;46.884;17.410;2024-03-29T02:45:56;6.67;87.30
76291;DHT22;65100;46.884;17.410;2024-03-29T02:48:22;6.58;85.11
76291;DHT22;65100;46.884;17.410;2024-03-29T02:50:47;6.22;85.30
76291;DHT22;65100;46.884;17.410;2024-03-29T02:53:13;5.89;88.23
76291;DHT22;65100;46.884;17.410;2024-03-29T02:55:38;5.54;89.79
76291;DHT22;65100;46.884;17.410;2024-03-29T02:58:04;6.10;87.97
76291;DHT22;65100;46.884;17.410;2024-03-29T03:00:29;6.26;86.71
76291;DHT22;65100;46.884;17.410;2024-03-29T03:02:55;6.29;86.77
76291;DHT22;65100;46.884;17.410;2024-03-29T03:05:20;6.13;85.33
76291;DHT22;65100;46.884;17.410;2024-03-29T03:07:46;5.88;84.66
76291;DHT22;65100;46.884;17.410;2024-03-29T03:10:30;5.73;85.93
76291;DHT22;65100;46.884;17.410;2024-03-29T03:13:14;5.62;85.95
76291;DHT22;65100;46.884;17.410;2024-03-29T03:15:39;5.63;84.68
76291;DHT22;65100;46.884;17.410;2024-03-29T03:18:04;5.55;86.86
76291;DHT22;65100;46.884;17.410;2024-03-29T03:20:30;5.75;87.28
76291;DHT22;65100;46.884;17.410;2024-03-29T03:22:57;5.85;86.98
76291;DHT22;65100;46.884;17.410;2024-03-29T03:25:24;5.65;85.82
76291;DHT22;65100;46.884;17.410;2024-03-29T03:27:49;5.68;87.35
76291;DHT22;65100;46.884;17.410;2024-03-29T03:30:15;5.61;86.44
76291;DHT22;65100;46.884;17.410;2024-03-29T03:32:40;5.49;85.73
76291;DHT22;65100;46.884;17.410;2024-03-29T03:35:06;5.48;85.45
76291;DHT22;65100;46.884;17.410;2024-03-29T03:37:31;4.97;88.21
76291;DHT22;65100;46.884;17.410;2024-03-29T03:39:57;5.28;89.10
76291;DHT22;65100;46.884;17.410;2024-03-29T03:42:22;5.41;88.81
76291;DHT22;65100;46.884;17.410;2024-03-29T03:44:48;5.28;88.15
76291;DHT22;65100;46.884;17.410;2024-03-29T03:47:13;5.66;86.63
76291;DHT22;65100;46.884;17.410;2024-03-29T03:49:39;5.58;85.04
76291;DHT22;65100;46.884;17.410;2024-03-29T03:52:04;5.49;86.34
76291;DHT22;65100;46.884;17.410;2024-03-29T03:54:30;5.63;84.31
76291;DHT22;65100;46.884;17.410;2024-03-29T03:56:55;5.35;83.08
76291;DHT22;65100;46.884;17.410;2024-03-29T03:59:21;5.28;85.32
76291;DHT22;65100;46.884;17.410;2024-03-29T04:01:46;5.21;85.29
76291;DHT22;65100;46.884;17.410;2024-03-29T04:04:12;5.07;86.32
76291;DHT22;65100;46.884;17.410;2024-03-29T04:06:37;5.04;85.71
76291;DHT22;65100;46.884;17.410;2024-03-29T04:09:03;5.17;85.35
76291;DHT22;65100;46.884;17.410;2024-03-29T04:11:29;5.01;85.35
76291;DHT22;65100;46.884;17.410;2024-03-29T04:13:54;5.00;85.29
76291;DHT22;65100;46.884;17.410;2024-03-29T04:16:20;5.14;87.08
76291;DHT22;65100;46.884;17.410;2024-03-29T04:18:45;5.04;84.72
76291;DHT22;65100;46.884;17.410;2024-03-29T04:21:11;4.91;85.30
76291;DHT22;65100;46.884;17.410;2024-03-29T04:23:36;4.94;88.08
76291;DHT22;65100;46.884;17.410;2024-03-29T04:26:02;5.07;85.80
76291;DHT22;65100;46.884;17.410;2024-03-29T04:28:28;5.08;85.17
76291;DHT22;65100;46.884;17.410;2024-03-29T04:30:55;5.14;86.67
76291;DHT22;65100;46.884;17.410;2024-03-29T04:33:20;5.07;84.32
76291;DHT22;65100;46.884;17.410;2024-03-29T04:36:03;5.15;85.09
76291;DHT22;65100;46.884;17.410;2024-03-29T04:38:30;5.07;85.49
76291;DHT22;65100;46.884;17.410;2024-03-29T04:40:57;5.08;86.24
76291;DHT22;65100;46.884;17.410;2024-03-29T04:43:24;5.20;85.15
76291;DHT22;65100;46.884;17.410;2024-03-29T04:45:50;5.14;85.73
76291;DHT22;65100;46.884;17.410;2024-03-29T04:48:16;5.18;85.51
76291;DHT22;65100;46.884;17.410;2024-03-29T04:50:42;5.17;85.21
76291;DHT22;65100;46.884;17.410;2024-03-29T04:53:08;5.34;86.00
76291;DHT22;65100;46.884;17.410;2024-03-29T04:55:34;5.47;85.33
76291;DHT22;65100;46.884;17.410;2024-03-29T04:58:00;5.41;85.73
76291;DHT22;65100;46.884;17.410;2024-03-29T05:00:25;5.54;85.36
76291;DHT22;65100;46.884;17.410;2024-03-29T05:02:51;5.79;85.89
76291;DHT22;65100;46.884;17.410;2024-03-29T05:05:16;5.86;85.38
76291;DHT22;65100;46.884;17.410;2024-03-29T05:07:42;5.99;86.88
76291;DHT22;65100;46.884;17.410;2024-03-29T05:10:07;6.43;85.69
76291;DHT22;65100;46.884;17.410;2024-03-29T05:12:35;6.88;84.57
76291;DHT22;65100;46.884;17.410;2024-03-29T05:15:00;7.69;82.40
76291;DHT22;65100;46.884;17.410;2024-03-29T05:17:26;8.25;80.54
76291;DHT22;65100;46.884;17.410;2024-03-29T05:19:53;9.28;78.71
76291;DHT22;65100;46.884;17.410;2024-03-29T05:22:19;9.89;78.95
76291;DHT22;65100;46.884;17.410;2024-03-29T05:24:44;10.64;76.80
76291;DHT22;65100;46.884;17.410;2024-03-29T05:27:11;11.31;74.15
76291;DHT22;65100;46.884;17.410;2024-03-29T05:29:36;11.42;76.24
76291;DHT22;65100;46.884;17.410;2024-03-29T05:32:02;11.96;76.58
76291;DHT22;65100;46.884;17.410;2024-03-29T05:34:29;12.20;73.57
76291;DHT22;65100;46.884;17.410;2024-03-29T05:36:54;12.27;72.31
76291;DHT22;65100;46.884;17.410;2024-03-29T05:39:20;11.96;74.14
76291;DHT22;65100;46.884;17.410;2024-03-29T05:41:45;11.59;75.67
76291;DHT22;65100;46.884;17.410;2024-03-29T05:44:11;11.78;75.54
76291;DHT22;65100;46.884;17.410;2024-03-29T05:46:36;11.89;75.30
76291;DHT22;65100;46.884;17.410;2024-03-29T05:49:03;11.73;75.34
76291;DHT22;65100;46.884;17.410;2024-03-29T05:51:28;12.17;75.38
76291;DHT22;65100;46.884;17.410;2024-03-29T05:53:53;12.24;73.82
76291;DHT22;65100;46.884;17.410;2024-03-29T05:56:21;12.38;73.30
76291;DHT22;65100;46.884;17.410;2024-03-29T05:58:47;12.53;72.65
76291;DHT22;65100;46.884;17.410;2024-03-29T06:01:12;13.19;71.07
76291;DHT22;65100;46.884;17.410;2024-03-29T06:03:38;14.14;68.22
76291;DHT22;65100;46.884;17.410;2024-03-29T06:06:04;13.83;67.48
76291;DHT22;65100;46.884;17.410;2024-03-29T06:08:29;15.31;64.47
76291;DHT22;65100;46.884;17.410;2024-03-29T06:10:55;14.41;65.05
76291;DHT22;65100;46.884;17.410;2024-03-29T06:13:20;14.63;66.05
76291;DHT22;65100;46.884;17.410;2024-03-29T06:16:15;14.61;67.48
76291;DHT22;65100;46.884;17.410;2024-03-29T06:18:59;13.45;70.70
76291;DHT22;65100;46.884;17.410;2024-03-29T06:21:25;12.63;71.65
76291;DHT22;65100;46.884;17.410;2024-03-29T06:23:50;12.80;72.63
76291;DHT22;65100;46.884;17.410;2024-03-29T06:26:16;13.48;70.18
76291;DHT22;65100;46.884;17.410;2024-03-29T06:28:41;13.18;69.24
76291;DHT22;65100;46.884;17.410;2024-03-29T06:31:06;13.02;71.11
76291;DHT22;65100;46.884;17.410;2024-03-29T06:33:32;12.88;71.55
76291;DHT22;65100;46.884;17.410;2024-03-29T06:35:57;13.12;70.39
76291;DHT22;65100;46.884;17.410;2024-03-29T06:38:23;13.55;69.99
76291;DHT22;65100;46.884;17.410;2024-03-29T06:40:48;13.98;68.65
76291;DHT22;65100;46.884;17.410;2024-03-29T06:43:14;13.39;68.60
76291;DHT22;65100;46.884;17.410;2024-03-29T06:45:40;13.31;70.81
76291;DHT22;65100;46.884;17.410;2024-03-29T06:48:08;13.62;69.75
76291;DHT22;65100;46.884;17.410;2024-03-29T06:50:34;12.97;70.88
76291;DHT22;65100;46.884;17.410;2024-03-29T06:53:00;12.10;73.95
76291;DHT22;65100;46.884;17.410;2024-03-29T06:55:25;12.17;75.31
76291;DHT22;65100;46.884;17.410;2024-03-29T06:57:50;11.90;75.20
76291;DHT22;65100;46.884;17.410;2024-03-29T07:00:16;11.87;75.66
76291;DHT22;65100;46.884;17.410;2024-03-29T07:02:42;12.03;75.09
76291;DHT22;65100;46.884;17.410;2024-03-29T07:05:08;11.79;75.80
76291;DHT22;65100;46.884;17.410;2024-03-29T07:07:36;12.07;75.05
76291;DHT22;65100;46.884;17.410;2024-03-29T07:10:02;12.46;75.15
76291;DHT22;65100;46.884;17.410;2024-03-29T07:12:28;12.81;72.00
76291;DHT22;65100;46.884;17.410;2024-03-29T07:14:53;12.47;73.65
76291;DHT22;65100;46.884;17.410;2024-03-29T07:17:19;12.85;71.73
76291;DHT22;65100;46.884;17.410;2024-03-29T07:19:44;12.81;72.22
76291;DHT22;65100;46.884;17.410;2024-03-29T07:22:09;13.48;71.35
76291;DHT22;65100;46.884;17.410;2024-03-29T07:24:35;13.28;70.08
76291;DHT22;65100;46.884;17.410;2024-03-29T07:27:00;14.03;68.33
76291;DHT22;65100;46.884;17.410;2024-03-29T07:29:26;13.85;69.50
76291;DHT22;65100;46.884;17.410;2024-03-29T07:31:51;13.38;69.41
76291;DHT22;65100;46.884;17.410;2024-03-29T07:34:17;13.66;70.98
76291;DHT22;65100;46.884;17.410;2024-03-29T07:36:42;13.90;70.10
76291;DHT22;65100;46.884;17.410;2024-03-29T07:39:08;14.41;70.48
76291;DHT22;65100;46.884;17.410;2024-03-29T07:41:33;14.77;68.21
76291;DHT22;65100;46.884;17.410;2024-03-29T07:43:59;14.40;69.11
76291;DHT22;65100;46.884;17.410;2024-03-29T07:46:31;13.75;70.78
76291;DHT22;65100;46.884;17.410;2024-03-29T07:48:57;13.61;71.18
76291;DHT22;65100;46.884;17.410;2024-03-29T07:51:22;13.85;70.89
76291;DHT22;65100;46.884;17.410;2024-03-29T07:53:48;13.89;71.22
76291;DHT22;65100;46.884;17.410;2024-03-29T07:56:13;13.25;72.76
76291;DHT22;65100;46.884;17.410;2024-03-29T07:58:38;13.83;71.25
76291;DHT22;65100;46.884;17.410;2024-03-29T08:01:04;13.48;73.57
76291;DHT22;65100;46.884;17.410;2024-03-29T08:03:29;13.86;71.59
76291;DHT22;65100;46.884;17.410;2024-03-29T08:06:01;14.03;71.87
76291;DHT22;65100;46.884;17.410;2024-03-29T08:08:31;14.36;71.67
76291;DHT22;65100;46.884;17.410;2024-03-29T08:10:57;14.61;69.66
76291;DHT22;65100;46.884;17.410;2024-03-29T08:13:27;14.56;72.07
76291;DHT22;65100;46.884;17.410;2024-03-29T08:16:00;14.36;70.82
76291;DHT22;65100;46.884;17.410;2024-03-29T08:18:26;14.41;71.25
76291;DHT22;65100;46.884;17.410;2024-03-29T08:20:52;14.29;72.40
76291;DHT22;65100;46.884;17.410;2024-03-29T08:23:20;14.30;72.38
76291;DHT22;65100;46.884;17.410;2024-03-29T08:25:45;14.51;71.28
76291;DHT22;65100;46.884;17.410;2024-03-29T08:28:11;14.47;72.63
76291;DHT22;65100;46.884;17.410;2024-03-29T08:30:36;14.75;71.72
76291;DHT22;65100;46.884;17.410;2024-03-29T08:33:02;14.80;71.02
76291;DHT22;65100;46.884;17.410;2024-03-29T08:35:32;14.91;71.39
76291;DHT22;65100;46.884;17.410;2024-03-29T08:37:58;14.71;72.21
76291;DHT22;65100;46.884;17.410;2024-03-29T08:40:26;14.98;70.86
76291;DHT22;65100;46.884;17.410;2024-03-29T08:42:54;14.99;73.12
76291;DHT22;65100;46.884;17.410;2024-03-29T08:45:19;15.25;70.53
76291;DHT22;65100;46.884;17.410;2024-03-29T08:47:46;15.25;72.13
76291;DHT22;65100;46.884;17.410;2024-03-29T08:50:12;15.05;72.16
76291;DHT22;65100;46.884;17.410;2024-03-29T08:52:38;15.35;70.25
76291;DHT22;65100;46.884;17.410;2024-03-29T08:55:07;15.19;71.07
76291;DHT22;65100;46.884;17.410;2024-03-29T08:57:34;15.58;71.72
76291;DHT22;65100;46.884;17.410;2024-03-29T08:59:59;15.76;69.23
76291;DHT22;65100;46.884;17.410;2024-03-29T09:02:25;15.66;70.70
76291;DHT22;65100;46.884;17.410;2024-03-29T09:04:51;15.56;70.77
76291;DHT22;65100;46.884;17.410;2024-03-29T09:07:16;15.56;70.28
76291;DHT22;65100;46.884;17.410;2024-03-29T09:09:42;15.67;69.67
76291;DHT22;65100;46.884;17.410;2024-03-29T09:12:08;15.99;69.48
76291;DHT22;65100;46.884;17.410;2024-03-29T09:14:33;16.24;68.49
76291;DHT22;65100;46.884;17.410;2024-03-29T09:16:59;16.68;69.46
76291;DHT22;65100;46.884;17.410;2024-03-29T09:19:24;17.42;65.27
76291;DHT22;65100;46.884;17.410;2024-03-29T09:21:50;17.51;64.73
76291;DHT22;65100;46.884;17.410;2024-03-29T09:24:16;17.63;65.42
76291;DHT22;65100;46.884;17.410;2024-03-29T09:26:43;17.41;65.04
76291;DHT22;65100;46.884;17.410;2024-03-29T09:29:08;17.46;65.90
76291;DHT22;65100;46.884;17.410;2024-03-29T09:31:35;17.42;66.68
76291;DHT22;65100;46.884;17.410;2024-03-29T09:34:00;17.34;66.36
76291;DHT22;65100;46.884;17.410;2024-03-29T09:36:26;17.39;66.09
76291;DHT22;65100;46.884;17.410;2024-03-29T09:38:51;17.59;65.10
76291;DHT22;65100;46.884;17.410;2024-03-29T09:41:18;17.59;64.64
76291;DHT22;65100;46.884;17.410;2024-03-29T09:43:46;17.66;66.14
76291;DHT22;65100;46.884;17.410;2024-03-29T09:46:15;17.85;65.52
76291;DHT22;65100;46.884;17.410;2024-03-29T09:48:42;17.89;64.15
76291;DHT22;65100;46.884;17.410;2024-03-29T09:51:09;18.05;65.07
76291;DHT22;65100;46.884;17.410;2024-03-29T09:53:36;17.93;64.54
76291;DHT22;65100;46.884;17.410;2024-03-29T09:56:04;18.07;64.95
76291;DHT22;65100;46.884;17.410;2024-03-29T09:58:30;18.22;63.94
76291;DHT22;65100;46.884;17.410;2024-03-29T10:00:57;18.29;63.40
76291;DHT22;65100;46.884;17.410;2024-03-29T10:03:25;18.47;64.42
76291;DHT22;65100;46.884;17.410;2024-03-29T10:05:59;18.56;62.87
76291;DHT22;65100;46.884;17.410;2024-03-29T10:08:29;18.60;64.06
76291;DHT22;65100;46.884;17.410;2024-03-29T10:10:57;18.74;62.39
76291;DHT22;65100;46.884;17.410;2024-03-29T10:13:23;18.81;62.71
76291;DHT22;65100;46.884;17.410;2024-03-29T10:15:49;18.90;61.40
76291;DHT22;65100;46.884;17.410;2024-03-29T10:18:17;19.10;62.85
76291;DHT22;65100;46.884;17.410;2024-03-29T10:20:45;19.25;63.06
76291;DHT22;65100;46.884;17.410;2024-03-29T10:23:10;19.31;59.31
76291;DHT22;65100;46.884;17.410;2024-03-29T10:25:35;19.42;61.42
76291;DHT22;65100;46.884;17.410;2024-03-29T10:28:01;19.34;61.26
76291;DHT22;65100;46.884;17.410;2024-03-29T10:30:30;19.32;60.72
76291;DHT22;65100;46.884;17.410;2024-03-29T10:32:56;19.48;60.90
76291;DHT22;65100;46.884;17.410;2024-03-29T10:35:22;19.41;60.03
76291;DHT22;65100;46.884;17.410;2024-03-29T10:37:49;19.48;59.09
76291;DHT22;65100;46.884;17.410;2024-03-29T10:40:17;19.49;59.80
76291;DHT22;65100;46.884;17.410;2024-03-29T10:42:45;19.36;58.75
76291;DHT22;65100;46.884;17.410;2024-03-29T10:45:14;19.63;60.67
76291;DHT22;65100;46.884;17.410;2024-03-29T10:47:41;19.85;59.46
76291;DHT22;65100;46.884;17.410;2024-03-29T10:50:11;20.20;58.48
76291;DHT22;65100;46.884;17.410;2024-03-29T10:52:39;20.13;57.10
76291;DHT22;65100;46.884;17.410;2024-03-29T10:55:06;20.22;58.43
76291;DHT22;65100;46.884;17.410;2024-03-29T10:57:33;20.30;57.89
76291;DHT22;65100;46.884;17.410;2024-03-29T11:00:17;20.60;57.18
76291;DHT22;65100;46.884;17.410;2024-03-29T11:03:16;20.74;55.41
76291;DHT22;65100;46.884;17.410;2024-03-29T11:05:50;20.57;56.90
76291;DHT22;65100;46.884;17.410;2024-03-29T11:08:23;20.57;55.34
76291;DHT22;65100;46.884;17.410;2024-03-29T11:10:53;20.56;54.98
76291;DHT22;65100;46.884;17.410;2024-03-29T11:16:14;20.66;55.16
76291;DHT22;65100;46.884;17.410;2024-03-29T11:18:42;20.79;54.39
76291;DHT22;65100;46.884;17.410;2024-03-29T11:21:08;20.64;54.37
76291;DHT22;65100;46.884;17.410;2024-03-29T11:23:36;21.00;53.87
76291;DHT22;65100;46.884;17.410;2024-03-29T11:26:02;21.00;54.26
76291;DHT22;65100;46.884;17.410;2024-03-29T11:28:34;21.02;53.84
76291;DHT22;65100;46.884;17.410;2024-03-29T11:31:01;20.92;52.60
76291;DHT22;65100;46.884;17.410;2024-03-29T11:35:57;20.85;54.94
76291;DHT22;65100;46.884;17.410;2024-03-29T11:38:36;20.74;53.95
76291;DHT22;65100;46.884;17.410;2024-03-29T11:43:36;20.57;54.98
76291;DHT22;65100;46.884;17.410;2024-03-29T11:46:08;20.64;55.07
76291;DHT22;65100;46.884;17.410;2024-03-29T11:48:34;20.79;55.25
76291;DHT22;65100;46.884;17.410;2024-03-29T11:51:02;20.94;53.35
76291;DHT22;65100;46.884;17.410;2024-03-29T11:53:29;20.95;53.42
76291;DHT22;65100;46.884;17.410;2024-03-29T11:55:56;20.90;53.51
76291;DHT22;65100;46.884;17.410;2024-03-29T11:58:23;20.84;53.41
76291;DHT22;65100;46.884;17.410;2024-03-29T12:00:49;20.74;53.88
76291;DHT22;65100;46.884;17.410;2024-03-29T12:03:16;20.85;53.87
76291;DHT22;65100;46.884;17.410;2024-03-29T12:05:46;20.92;53.90
76291;DHT22;65100;46.884;17.410;2024-03-29T12:08:12;21.10;53.12
76291;DHT22;65100;46.884;17.410;2024-03-29T12:10:37;21.25;52.48
76291;DHT22;65100;46.884;17.410;2024-03-29T12:13:07;21.28;52.50
76291;DHT22;65100;46.884;17.410;2024-03-29T12:15:33;21.18;52.93
76291;DHT22;65100;46.884;17.410;2024-03-29T12:18:03;21.51;52.81
76291;DHT22;65100;46.884;17.410;2024-03-29T12:20:33;21.66;53.64
76291;DHT22;65100;46.884;17.410;2024-03-29T12:23:01;21.88;51.66
76291;DHT22;65100;46.884;17.410;2024-03-29T12:25:30;21.79;51.03
76291;DHT22;65100;46.884;17.410;2024-03-29T12:27:58;21.79;52.47
76291;DHT22;65100;46.884;17.410;2024-03-29T12:30:23;21.45;52.28
76291;DHT22;65100;46.884;17.410;2024-03-29T12:33:02;21.05;53.61
76291;DHT22;65100;46.884;17.410;2024-03-29T12:35:28;21.10;54.43
76291;DHT22;65100;46.884;17.410;2024-03-29T12:38:01;20.85;53.54
76291;DHT22;65100;46.884;17.410;2024-03-29T12:40:28;20.76;53.68
76291;DHT22;65100;46.884;17.410;2024-03-29T12:42:57;20.95;54.62
76291;DHT22;65100;46.884;17.410;2024-03-29T12:45:24;21.11;53.56
76291;DHT22;65100;46.884;17.410;2024-03-29T12:47:49;20.92;54.16
76291;DHT22;65100;46.884;17.410;2024-03-29T12:52:54;21.04;53.18
76291;DHT22;65100;46.884;17.410;2024-03-29T12:55:20;21.01;54.04
76291;DHT22;65100;46.884;17.410;2024-03-29T12:57:45;20.88;53.48
76291;DHT22;65100;46.884;17.410;2024-03-29T13:00:12;20.80;53.90
76291;DHT22;65100;46.884;17.410;2024-03-29T13:02:38;20.91;53.98
76291;DHT22;65100;46.884;17.410;2024-03-29T13:05:07;21.02;53.51
76291;DHT22;65100;46.884;17.410;2024-03-29T13:07:32;21.25;52.83
76291;DHT22;65100;46.884;17.410;2024-03-29T13:10:02;21.54;52.78
76291;DHT22;65100;46.884;17.410;2024-03-29T13:12:31;21.31;53.62
76291;DHT22;65100;46.884;17.410;2024-03-29T13:14:56;21.14;52.76
76291;DHT22;65100;46.884;17.410;2024-03-29T13:17:22;21.02;53.02
76291;DHT22;65100;46.884;17.410;2024-03-29T13:19:47;20.98;54.79
76291;DHT22;65100;46.884;17.410;2024-03-29T13:22:12;21.01;53.99
76291;DHT22;65100;46.884;17.410;2024-03-29T13:24:38;21.05;54.72
76291;DHT22;65100;46.884;17.410;2024-03-29T13:27:03;21.12;53.52
76291;DHT22;65100;46.884;17.410;2024-03-29T13:29:29;21.11;54.38
76291;DHT22;65100;46.884;17.410;2024-03-29T13:31:55;20.85;54.25
76291;DHT22;65100;46.884;17.410;2024-03-29T13:34:22;20.83;54.79
76291;DHT22;65100;46.884;17.410;2024-03-29T13:36:47;20.69;54.31
76291;DHT22;65100;46.884;17.410;2024-03-29T13:39:13;20.64;54.43
76291;DHT22;65100;46.884;17.410;2024-03-29T13:41:40;20.63;54.78
76291;DHT22;65100;46.884;17.410;2024-03-29T13:44:06;20.61;54.68
76291;DHT22;65100;46.884;17.410;2024-03-29T13:46:35;20.64;54.82
76291;DHT22;65100;46.884;17.410;2024-03-29T13:49:01;20.66;54.61
76291;DHT22;65100;46.884;17.410;2024-03-29T13:51:27;20.79;54.83
76291;DHT22;65100;46.884;17.410;2024-03-29T13:53:53;20.80;54.44
76291;DHT22;65100;46.884;17.410;2024-03-29T13:56:21;20.73;54.82
76291;DHT22;65100;46.884;17.410;2024-03-29T13:58:47;20.69;55.12
76291;DHT22;65100;46.884;17.410;2024-03-29T14:01:13;20.67;55.04
76291;DHT22;65100;46.884;17.410;2024-03-29T14:03:38;20.58;55.01
76291;DHT22;65100;46.884;17.410;2024-03-29T14:06:04;20.53;55.14
76291;DHT22;65100;46.884;17.410;2024-03-29T14:08:31;20.34;55.59
76291;DHT22;65100;46.884;17.410;2024-03-29T14:10:57;20.30;55.64
76291;DHT22;65100;46.884;17.410;2024-03-29T14:13:23;20.25;56.21
76291;DHT22;65100;46.884;17.410;2024-03-29T14:15:49;20.19;56.30
76291;DHT22;65100;46.884;17.410;2024-03-29T14:18:14;20.08;56.37
76291;DHT22;65100;46.884;17.410;2024-03-29T14:20:40;20.09;56.66
76291;DHT22;65100;46.884;17.410;2024-03-29T14:23:05;20.15;56.64
76291;DHT22;65100;46.884;17.410;2024-03-29T14:25:34;20.12;56.63
76291;DHT22;65100;46.884;17.410;2024-03-29T14:28:02;19.96;56.87
76291;DHT22;65100;46.884;17.410;2024-03-29T14:30:29;19.94;56.51
76291;DHT22;65100;46.884;17.410;2024-03-29T14:32:55;19.83;57.35
76291;DHT22;65100;46.884;17.410;2024-03-29T14:35:21;19.90;57.06
76291;DHT22;65100;46.884;17.410;2024-03-29T14:37:47;19.94;56.98
76291;DHT22;65100;46.884;17.410;2024-03-29T14:40:13;19.96;57.43
76291;DHT22;65100;46.884;17.410;2024-03-29T14:42:43;19.94;57.03
76291;DHT22;65100;46.884;17.410;2024-03-29T14:45:10;19.81;57.44
76291;DHT22;65100;46.884;17.410;2024-03-29T14:47:38;19.81;57.48
76291;DHT22;65100;46.884;17.410;2024-03-29T14:50:04;19.81;57.44
76291;DHT22;65100;46.884;17.410;2024-03-29T14:52:37;19.83;58.05
76291;DHT22;65100;46.884;17.410;2024-03-29T14:55:03;19.68;57.73
76291;DHT22;65100;46.884;17.410;2024-03-29T14:57:30;19.68;58.21
76291;DHT22;65100;46.884;17.410;2024-03-29T14:59:56;19.62;58.61
76291;DHT22;65100;46.884;17.410;2024-03-29T15:02:21;19.59;58.68
76291;DHT22;65100;46.884;17.410;2024-03-29T15:04:47;19.54;59.04
76291;DHT22;65100;46.884;17.410;2024-03-29T15:07:12;19.58;58.72
76291;DHT22;65100;46.884;17.410;2024-03-29T15:09:38;19.58;58.50
76291;DHT22;65100;46.884;17.410;2024-03-29T15:12:03;19.54;57.89
76291;DHT22;65100;46.884;17.410;2024-03-29T15:14:30;19.57;57.83
76291;DHT22;65100;46.884;17.410;2024-03-29T15:16:55;19.57;58.50
76291;DHT22;65100;46.884;17.410;2024-03-29T15:19:21;19.49;58.51
76291;DHT22;65100;46.884;17.410;2024-03-29T15:21:47;19.54;58.93
76291;DHT22;65100;46.884;17.410;2024-03-29T15:24:14;19.55;58.28
76291;DHT22;65100;46.884;17.410;2024-03-29T15:26:40;19.57;57.47